createdAt,value
2022-12-19T00:01:58.509Z,-4.32
2022-12-19T00:04:26.310Z,-4.14
2022-12-19T00:06:54.114Z,-4.30
2022-12-19T00:09:21.814Z,-4.22
2022-12-19T00:11:49.583Z,-4.53
2022-12-19T00:14:18.845Z,-4.47
2022-12-19T00:16:46.766Z,-4.35
2022-12-19T00:19:15.635Z,-4.39
2022-12-19T00:21:43.312Z,-4.39
2022-12-19T00:24:15.368Z,-4.43
2022-12-19T00:26:49.463Z,-4.47
2022-12-19T00:29:18.563Z,-4.40
2022-12-19T00:31:46.322Z,-4.59
2022-12-19T00:34:14.036Z,-4.56
2022-12-19T00:36:41.701Z,-4.59
2022-12-19T00:39:10.240Z,-4.64
2022-12-19T00:41:41.576Z,-4.48
2022-12-19T00:44:12.297Z,-4.57
2022-12-19T00:46:41.333Z,-4.54
2022-12-19T00:49:09.345Z,-4.44
2022-12-19T00:51:38.255Z,-4.33
2022-12-19T00:54:07.259Z,-4.41
2022-12-19T00:56:37.746Z,-4.38
2022-12-19T00:59:06.274Z,-4.53
2022-12-19T01:01:36.335Z,-4.60
2022-12-19T01:07:01.713Z,-4.63
2022-12-19T01:09:30.683Z,-4.40
2022-12-19T01:12:16.000Z,-4.61
2022-12-19T01:14:43.663Z,-4.55
2022-12-19T01:17:11.432Z,-4.53
2022-12-19T01:19:44.376Z,-4.42
2022-12-19T01:22:12.647Z,-4.36
2022-12-19T01:24:40.807Z,-4.28
2022-12-19T01:27:08.520Z,-4.37
2022-12-19T01:29:38.889Z,-4.46
2022-12-19T01:32:20.387Z,-4.47
2022-12-19T01:34:49.514Z,-4.47
2022-12-19T01:37:17.200Z,-4.33
2022-12-19T01:39:44.980Z,-4.36
2022-12-19T01:42:16.525Z,-4.35
2022-12-19T01:45:28.924Z,-4.36
2022-12-19T01:48:12.486Z,-4.41
2022-12-19T01:51:01.016Z,-4.50
2022-12-19T01:53:34.472Z,-4.47
2022-12-19T01:56:09.526Z,-4.53
2022-12-19T01:58:39.296Z,-4.38
2022-12-19T02:01:07.243Z,-4.39
2022-12-19T02:03:38.460Z,-4.42
2022-12-19T02:06:09.353Z,-4.36
2022-12-19T02:08:38.357Z,-4.46
2022-12-19T02:11:06.350Z,-4.56
2022-12-19T02:13:34.771Z,-4.59
2022-12-19T02:16:10.769Z,-4.47
2022-12-19T02:18:45.041Z,-4.43
2022-12-19T02:21:30.615Z,-4.38
2022-12-19T02:24:26.940Z,-4.34
2022-12-19T02:27:03.124Z,-4.46
2022-12-19T02:30:07.104Z,-4.27
2022-12-19T02:32:44.903Z,-4.33
2022-12-19T02:35:21.403Z,-4.38
2022-12-19T02:37:54.088Z,-4.36
2022-12-19T02:40:26.239Z,-4.23
2022-12-19T02:42:58.875Z,-4.28
2022-12-19T02:45:30.813Z,-4.28
2022-12-19T02:48:05.763Z,-4.29
2022-12-19T02:50:41.130Z,-4.18
2022-12-19T02:53:11.104Z,-4.22
2022-12-19T02:55:49.145Z,-4.28
2022-12-19T02:58:50.081Z,-4.18
2022-12-19T03:01:30.228Z,-4.10
2022-12-19T03:04:15.562Z,-4.14
2022-12-19T03:06:50.128Z,-4.05
2022-12-19T03:09:26.787Z,-3.97
2022-12-19T03:12:05.655Z,-4.11
2022-12-19T03:14:34.894Z,-4.08
2022-12-19T03:17:07.259Z,-3.97
2022-12-19T03:19:39.708Z,-4.02
2022-12-19T03:22:08.646Z,-4.00
2022-12-19T03:24:36.564Z,-3.99
2022-12-19T03:27:09.642Z,-4.07
2022-12-19T03:29:40.095Z,-3.99
2022-12-19T03:32:14.945Z,-4.03
2022-12-19T03:34:48.284Z,-4.06
2022-12-19T03:37:19.269Z,-3.98
2022-12-19T03:39:50.664Z,-3.96
2022-12-19T03:42:37.696Z,-3.92
2022-12-19T03:45:07.664Z,-3.91
2022-12-19T03:47:39.429Z,-3.94
2022-12-19T03:50:10.299Z,-3.96
2022-12-19T03:52:46.791Z,-3.93
2022-12-19T03:55:18.879Z,-3.92
2022-12-19T03:57:50.541Z,-3.86
2022-12-19T04:00:19.808Z,-3.95
2022-12-19T04:02:52.161Z,-3.89
2022-12-19T04:05:24.203Z,-3.80
2022-12-19T04:07:55.264Z,-3.85
2022-12-19T04:10:26.028Z,-3.86
2022-12-19T04:12:59.043Z,-3.79
2022-12-19T04:15:36.069Z,-3.62
2022-12-19T04:18:06.507Z,-3.67
2022-12-19T04:20:40.410Z,-3.69
2022-12-19T04:23:13.799Z,-3.58
2022-12-19T04:25:46.279Z,-3.68
2022-12-19T04:28:21.324Z,-3.71
2022-12-19T04:30:50.693Z,-3.70
2022-12-19T04:33:18.468Z,-3.82
2022-12-19T04:35:47.506Z,-3.71
2022-12-19T04:38:15.403Z,-3.71
2022-12-19T04:40:43.190Z,-3.73
2022-12-19T04:43:10.895Z,-3.66
2022-12-19T04:45:38.701Z,-3.75
2022-12-19T04:48:08.044Z,-3.68
2022-12-19T04:50:36.731Z,-3.66
2022-12-19T04:53:06.059Z,-3.56
2022-12-19T04:55:33.819Z,-3.60
2022-12-19T04:58:06.239Z,-3.40
2022-12-19T05:00:35.142Z,-3.51
2022-12-19T05:03:02.924Z,-3.46
2022-12-19T05:05:31.107Z,-3.56
2022-12-19T05:07:58.792Z,-3.50
2022-12-19T05:10:27.838Z,-3.48
2022-12-19T05:12:55.600Z,-3.33
2022-12-19T05:15:23.455Z,-3.46
2022-12-19T05:17:51.116Z,-3.44
2022-12-19T05:20:19.071Z,-3.43
2022-12-19T05:22:46.760Z,-3.33
2022-12-19T05:25:14.537Z,-3.42
2022-12-19T05:27:43.599Z,-3.51
2022-12-19T05:30:12.337Z,-3.45
2022-12-19T05:32:40.045Z,-3.53
2022-12-19T05:35:08.451Z,-3.52
2022-12-19T05:37:36.160Z,-3.56
2022-12-19T05:40:03.851Z,-3.41
2022-12-19T05:42:31.493Z,-3.36
2022-12-19T05:45:00.485Z,-3.33
2022-12-19T05:47:28.155Z,-3.27
2022-12-19T05:49:55.884Z,-3.26
2022-12-19T05:52:24.672Z,-3.34
2022-12-19T05:54:52.381Z,-3.22
2022-12-19T05:57:20.038Z,-3.26
2022-12-19T05:59:47.738Z,-3.20
2022-12-19T06:02:16.874Z,-3.21
2022-12-19T06:04:44.606Z,-3.14
2022-12-19T06:07:14.350Z,-3.18
2022-12-19T06:09:45.555Z,-3.25
2022-12-19T06:12:13.249Z,-3.13
2022-12-19T06:14:40.986Z,-3.19
2022-12-19T06:17:08.711Z,-3.15
2022-12-19T06:19:37.731Z,-3.21
2022-12-19T06:22:05.711Z,-3.04
2022-12-19T06:24:33.401Z,-3.16
2022-12-19T06:27:01.135Z,-3.19
2022-12-19T06:29:28.831Z,-3.20
2022-12-19T06:31:56.730Z,-3.23
2022-12-19T06:34:54.920Z,-3.14
2022-12-19T06:37:14.135Z,-3.25
2022-12-19T06:39:41.772Z,-3.17
2022-12-19T06:42:24.442Z,-3.14
2022-12-19T06:44:54.184Z,-3.16
2022-12-19T06:47:23.480Z,-3.08
2022-12-19T06:49:51.265Z,-3.14
2022-12-19T06:52:20.419Z,-3.13
2022-12-19T06:54:48.143Z,-3.06
2022-12-19T06:57:15.820Z,-2.98
2022-12-19T06:59:43.491Z,-3.12
2022-12-19T07:02:22.982Z,-3.04
2022-12-19T07:04:53.612Z,-3.03
2022-12-19T07:07:22.642Z,-3.04
2022-12-19T07:09:50.410Z,-2.96
2022-12-19T07:12:18.085Z,-2.91
2022-12-19T07:14:50.232Z,-2.77
2022-12-19T07:17:21.872Z,-2.89
2022-12-19T07:19:49.627Z,-2.85
2022-12-19T07:22:17.710Z,-2.70
2022-12-19T07:24:47.102Z,-2.76
2022-12-19T07:27:14.912Z,-2.90
2022-12-19T07:29:42.536Z,-2.77
2022-12-19T07:32:10.222Z,-2.72
2022-12-19T07:34:37.885Z,-2.66
2022-12-19T07:37:06.771Z,-2.66
2022-12-19T07:39:34.530Z,-2.67
2022-12-19T07:42:03.655Z,-2.62
2022-12-19T07:44:31.483Z,-2.53
2022-12-19T07:46:59.221Z,-2.64
2022-12-19T07:49:26.910Z,-2.60
2022-12-19T07:51:54.607Z,-2.49
2022-12-19T07:54:22.270Z,-2.62
2022-12-19T07:56:49.976Z,-2.52
2022-12-19T07:59:20.173Z,-2.62
2022-12-19T08:02:04.355Z,-2.62
2022-12-19T08:04:32.264Z,-2.49
2022-12-19T08:06:59.937Z,-2.58
2022-12-19T08:09:28.338Z,-2.39
2022-12-19T08:11:56.352Z,-2.27
2022-12-19T08:14:25.587Z,-2.30
2022-12-19T08:17:19.885Z,-2.35
2022-12-19T08:19:40.851Z,-2.26
2022-12-19T08:22:08.559Z,-2.31
2022-12-19T08:24:36.534Z,-2.20
2022-12-19T08:27:04.324Z,-2.22
2022-12-19T08:29:33.698Z,-2.13
2022-12-19T08:32:01.328Z,-2.07
2022-12-19T08:34:28.996Z,-2.06
2022-12-19T08:36:56.856Z,-1.90
2022-12-19T08:39:24.568Z,-2.12
2022-12-19T08:41:52.306Z,-2.06
2022-12-19T08:44:19.965Z,-2.02
2022-12-19T08:46:50.557Z,-2.04
2022-12-19T08:49:18.865Z,-2.08
2022-12-19T08:51:46.955Z,-2.06
2022-12-19T08:54:14.658Z,-2.05
2022-12-19T08:56:46.302Z,-2.13
2022-12-19T08:59:15.862Z,-1.84
2022-12-19T09:01:54.253Z,-2.03
2022-12-19T09:05:26.454Z,-1.93
2022-12-19T09:07:10.119Z,-1.93
2022-12-19T09:09:37.827Z,-1.78
2022-12-19T09:12:05.664Z,-1.61
2022-12-19T09:14:34.821Z,-1.61
2022-12-19T09:17:04.850Z,-1.68
2022-12-19T09:19:32.764Z,-1.64
2022-12-19T09:22:00.608Z,-1.68
2022-12-19T09:24:28.592Z,-1.48
2022-12-19T09:26:56.242Z,-1.38
2022-12-19T09:29:23.968Z,-1.61
2022-12-19T09:31:56.634Z,-1.33
2022-12-19T09:34:34.880Z,-1.43
2022-12-19T09:37:06.458Z,-1.65
2022-12-19T09:39:35.127Z,-1.41
2022-12-19T09:42:18.243Z,-1.19
2022-12-19T09:44:59.410Z,-1.32
2022-12-19T09:47:30.718Z,-1.35
2022-12-19T09:50:01.220Z,-1.22
2022-12-19T09:52:33.758Z,-1.21
2022-12-19T09:55:06.763Z,-1.15
2022-12-19T09:57:43.224Z,-1.17
2022-12-19T10:00:14.384Z,-1.27
2022-12-19T10:02:46.834Z,-1.14
2022-12-19T10:05:52.333Z,-0.98
2022-12-19T10:08:18.685Z,-0.82
2022-12-19T10:12:40.720Z,-0.77
2022-12-19T10:14:04.138Z,-0.75
2022-12-19T10:16:56.327Z,-0.75
2022-12-19T10:19:42.157Z,-0.78
2022-12-19T10:22:24.407Z,-0.73
2022-12-19T10:25:09.809Z,-0.71
2022-12-19T10:27:58.885Z,-0.35
2022-12-19T10:30:31.790Z,-0.40
2022-12-19T10:33:07.673Z,-0.51
2022-12-19T10:35:44.127Z,-0.20
2022-12-19T10:38:28.362Z,-0.17
2022-12-19T10:41:11.348Z,-0.47
2022-12-19T10:43:48.215Z,-0.30
2022-12-19T10:46:20.944Z,-0.23
2022-12-19T10:48:51.795Z,-0.36
2022-12-19T10:51:24.800Z,-0.16
2022-12-19T10:53:58.025Z,-0.46
2022-12-19T10:56:31.682Z,-0.41
2022-12-19T10:59:03.221Z,-0.38
2022-12-19T11:01:36.043Z,-0.44
2022-12-19T11:04:22.483Z,-0.58
2022-12-19T11:06:52.371Z,-0.47
2022-12-19T11:09:38.801Z,-0.45
2022-12-19T11:16:44.061Z,-0.47
2022-12-19T11:20:29.201Z,-0.18
2022-12-19T11:27:16.207Z,-0.31
2022-12-19T11:29:29.802Z,-0.23
2022-12-19T11:29:34.224Z,-0.26
2022-12-19T11:30:09.513Z,-0.29
2022-12-19T11:32:42.769Z,0.05
2022-12-19T11:35:21.017Z,-0.23
2022-12-19T11:37:56.146Z,-0.20
2022-12-19T11:40:33.755Z,-0.13
2022-12-19T11:46:03.895Z,0.20
2022-12-19T11:48:39.472Z,0.17
2022-12-19T11:51:17.283Z,0.24
2022-12-19T11:53:52.607Z,0.23
2022-12-19T11:56:24.196Z,0.36
2022-12-19T11:58:59.026Z,0.31
2022-12-19T12:01:43.136Z,0.42
2022-12-19T12:04:45.118Z,0.49
2022-12-19T12:07:42.339Z,0.27
2022-12-19T12:13:26.909Z,0.43
2022-12-19T12:20:31.324Z,0.50
2022-12-19T12:28:46.575Z,0.52
2022-12-19T12:31:08.294Z,0.41
2022-12-19T12:31:14.422Z,0.44
2022-12-19T12:31:17.624Z,0.55
2022-12-19T12:31:41.327Z,0.42
2022-12-19T12:32:04.343Z,0.43
2022-12-19T12:35:51.086Z,0.38
2022-12-19T12:39:41.209Z,0.50
2022-12-19T12:42:24.108Z,0.47
2022-12-19T12:44:56.428Z,0.66
2022-12-19T12:47:26.089Z,0.74
2022-12-19T12:49:58.519Z,0.83
2022-12-19T12:52:33.794Z,0.80
2022-12-19T12:55:04.040Z,0.68
2022-12-19T12:57:37.827Z,0.83
2022-12-19T13:00:24.017Z,0.89
2022-12-19T13:02:55.789Z,0.89
2022-12-19T13:05:39.683Z,0.90
2022-12-19T13:08:35.749Z,1.02
2022-12-19T13:11:06.442Z,1.18
2022-12-19T13:13:52.120Z,1.06
2022-12-19T13:16:50.170Z,1.01
2022-12-19T13:19:27.468Z,1.03
2022-12-19T13:22:18.443Z,0.98
2022-12-19T13:24:47.960Z,1.17
2022-12-19T13:27:39.272Z,1.20
2022-12-19T13:30:20.631Z,1.35
2022-12-19T13:33:12.052Z,1.44
2022-12-19T13:38:58.028Z,1.27
2022-12-19T13:39:48.340Z,1.37
2022-12-19T13:41:46.969Z,1.26
2022-12-19T13:44:15.230Z,1.48
2022-12-19T13:46:44.653Z,1.53
2022-12-19T13:49:16.174Z,1.56
2022-12-19T13:51:48.225Z,1.64
2022-12-19T13:54:22.920Z,1.78
2022-12-19T13:56:51.280Z,1.62
2022-12-19T13:59:20.236Z,1.61
2022-12-19T14:01:48.251Z,1.62
2022-12-19T14:04:28.163Z,1.63
2022-12-19T14:07:01.249Z,1.68
2022-12-19T14:11:27.070Z,1.63
2022-12-19T14:13:57.555Z,1.47
2022-12-19T14:15:33.877Z,1.49
2022-12-19T14:18:43.289Z,1.47
2022-12-19T14:22:07.243Z,1.42
2022-12-19T14:23:43.689Z,1.47
2022-12-19T14:28:19.582Z,1.46
2022-12-19T14:29:13.542Z,1.38
2022-12-19T14:32:23.966Z,1.38
2022-12-19T14:35:29.529Z,1.40
2022-12-19T14:38:12.705Z,1.36
2022-12-19T14:40:24.825Z,1.34
2022-12-19T14:43:57.812Z,1.33
2022-12-19T14:54:13.315Z,1.44
2022-12-19T14:54:13.499Z,1.45
2022-12-19T14:54:26.181Z,1.37
2022-12-19T14:56:19.742Z,1.41
2022-12-19T14:58:53.273Z,1.51
2022-12-19T15:01:24.829Z,1.50
2022-12-19T15:04:48.887Z,1.44
2022-12-19T15:07:08.583Z,1.41
2022-12-19T15:11:08.134Z,1.30
2022-12-19T15:14:48.422Z,1.29
2022-12-19T15:15:46.157Z,1.35
2022-12-19T15:18:22.123Z,1.28
2022-12-19T15:20:50.059Z,1.31
2022-12-19T15:23:21.930Z,1.27
2022-12-19T15:26:07.645Z,1.25
2022-12-19T15:28:40.276Z,1.32
2022-12-19T15:31:23.354Z,1.32
2022-12-19T15:34:32.260Z,1.21
2022-12-19T15:36:38.923Z,1.24
2022-12-19T15:39:06.545Z,1.28
2022-12-19T15:41:34.277Z,1.28
2022-12-19T15:44:08.206Z,1.31
2022-12-19T15:46:41.304Z,1.20
2022-12-19T15:49:16.439Z,1.20
2022-12-19T15:51:44.164Z,1.28
2022-12-19T15:56:59.583Z,1.27
2022-12-19T15:59:36.476Z,1.23
2022-12-19T16:02:16.969Z,1.29
2022-12-19T16:04:46.115Z,1.21
2022-12-19T16:07:17.035Z,1.25
2022-12-19T16:09:44.749Z,1.16
2022-12-19T16:12:15.311Z,1.21
2022-12-19T16:14:43.236Z,1.25
2022-12-19T16:17:16.213Z,1.21
2022-12-19T16:19:43.879Z,1.11
2022-12-19T16:22:19.328Z,1.12
2022-12-19T16:24:47.369Z,1.12
2022-12-19T16:27:23.411Z,1.07
2022-12-19T16:29:52.034Z,1.03
2022-12-19T16:32:23.911Z,1.01
2022-12-19T16:34:52.291Z,1.01
2022-12-19T16:37:20.104Z,1.00
2022-12-19T16:39:47.811Z,0.98
2022-12-19T16:42:17.328Z,0.98
2022-12-19T16:44:47.369Z,1.05
2022-12-19T16:47:17.759Z,1.02
2022-12-19T16:49:46.932Z,0.98
2022-12-19T16:52:14.661Z,0.96
2022-12-19T16:54:42.629Z,1.06
2022-12-19T16:57:20.336Z,1.00
2022-12-19T16:59:49.465Z,0.91
2022-12-19T17:02:40.292Z,0.97
2022-12-19T17:05:16.869Z,0.87
2022-12-19T17:07:44.839Z,0.90
2022-12-19T17:10:13.092Z,0.92
2022-12-19T17:12:41.802Z,0.92
2022-12-19T17:15:19.669Z,0.94
2022-12-19T17:17:48.781Z,0.90
2022-12-19T17:20:20.581Z,0.90
2022-12-19T17:22:48.669Z,0.94
2022-12-19T17:25:20.205Z,0.97
2022-12-19T17:27:48.269Z,0.93
2022-12-19T17:30:16.787Z,0.94
2022-12-19T17:32:45.629Z,0.90
2022-12-19T17:35:27.548Z,0.89
2022-12-19T17:37:59.176Z,0.83
2022-12-19T17:40:29.785Z,0.92
2022-12-19T17:42:58.690Z,0.84
2022-12-19T17:45:28.386Z,0.83
2022-12-19T17:48:02.542Z,0.88
2022-12-19T17:50:38.167Z,0.87
2022-12-19T17:53:06.453Z,0.89
2022-12-19T17:55:34.423Z,0.82
2022-12-19T17:58:02.141Z,0.79
2022-12-19T18:00:33.585Z,0.81
2022-12-19T18:03:04.977Z,0.78
2022-12-19T18:05:37.112Z,0.76
2022-12-19T18:08:07.708Z,0.83
2022-12-19T18:10:35.449Z,0.80
2022-12-19T18:13:04.393Z,0.78
2022-12-19T18:15:32.248Z,0.87
2022-12-19T18:17:59.996Z,0.87
2022-12-19T18:20:32.144Z,0.85
2022-12-19T18:23:02.190Z,0.88
2022-12-19T18:25:32.340Z,0.82
2022-12-19T18:28:00.111Z,0.81
2022-12-19T18:30:27.823Z,0.80
2022-12-19T18:32:58.763Z,0.80
2022-12-19T18:35:31.676Z,0.79
2022-12-19T18:38:03.286Z,0.79
2022-12-19T18:40:32.129Z,0.78
2022-12-19T18:43:00.266Z,0.86
2022-12-19T18:45:36.063Z,0.79
2022-12-19T18:48:07.886Z,0.81
2022-12-19T18:50:35.912Z,0.76
2022-12-19T18:53:11.650Z,0.78
2022-12-19T18:55:39.341Z,0.74
2022-12-19T18:58:07.272Z,0.79
2022-12-19T19:00:36.129Z,0.83
2022-12-19T19:03:06.415Z,0.73
2022-12-19T19:05:36.665Z,0.74
2022-12-19T19:08:16.283Z,0.69
2022-12-19T19:10:44.968Z,0.58
2022-12-19T19:13:13.265Z,0.61
2022-12-19T19:15:48.167Z,0.58
2022-12-19T19:18:20.715Z,0.68
2022-12-19T19:20:55.724Z,0.65
2022-12-19T19:23:34.761Z,0.60
2022-12-19T19:26:02.670Z,0.58
2022-12-19T19:28:30.809Z,0.53
2022-12-19T19:31:01.654Z,0.53
2022-12-19T19:33:33.783Z,0.49
2022-12-19T19:36:11.664Z,0.49
2022-12-19T19:38:44.177Z,0.51
2022-12-19T19:41:12.593Z,0.53
2022-12-19T19:43:40.572Z,0.51
2022-12-19T19:46:08.381Z,0.51
2022-12-19T19:48:37.235Z,0.49
2022-12-19T19:51:05.263Z,0.49
2022-12-19T19:53:35.993Z,0.44
2022-12-19T19:56:05.406Z,0.52
2022-12-19T19:58:33.272Z,0.54
2022-12-19T20:01:01.173Z,0.59
2022-12-19T20:03:29.207Z,0.55
2022-12-19T20:06:00.812Z,0.54
2022-12-19T20:08:33.612Z,0.54
2022-12-19T20:11:10.909Z,0.49
2022-12-19T20:13:39.436Z,0.45
2022-12-19T20:16:09.211Z,0.45
2022-12-19T20:18:38.453Z,0.50
2022-12-19T20:21:12.710Z,0.37
2022-12-19T20:23:42.444Z,0.44
2022-12-19T20:26:12.816Z,0.48
2022-12-19T20:28:47.880Z,0.47
2022-12-19T20:31:17.638Z,0.42
2022-12-19T20:33:46.330Z,0.41
2022-12-19T20:36:15.374Z,0.44
2022-12-19T20:38:43.617Z,0.46
2022-12-19T20:41:13.033Z,0.41
2022-12-19T20:43:41.413Z,0.44
2022-12-19T20:46:11.612Z,0.43
2022-12-19T20:48:39.756Z,0.47
2022-12-19T20:51:08.634Z,0.42
2022-12-19T20:53:37.743Z,0.35
2022-12-19T20:56:07.393Z,0.33
2022-12-19T20:58:38.073Z,0.42
2022-12-19T21:01:07.779Z,0.40
2022-12-19T21:03:36.359Z,0.41
2022-12-19T21:06:04.860Z,0.40
2022-12-19T21:08:33.137Z,0.47
2022-12-19T21:11:01.887Z,0.43
2022-12-19T21:13:30.092Z,0.44
2022-12-19T21:16:01.997Z,0.51
2022-12-19T21:18:30.465Z,0.46
2022-12-19T21:20:58.181Z,0.41
2022-12-19T21:23:26.627Z,0.38
2022-12-19T21:25:58.747Z,0.39
2022-12-19T21:28:26.645Z,0.42
2022-12-19T21:31:00.850Z,0.52
2022-12-19T21:33:29.172Z,0.50
2022-12-19T21:35:56.992Z,0.50
2022-12-19T21:38:25.459Z,0.44
2022-12-19T21:40:53.285Z,0.46
2022-12-19T21:43:21.032Z,0.55
2022-12-19T21:45:48.787Z,0.54
2022-12-19T21:48:18.046Z,0.57
2022-12-19T21:50:45.899Z,0.65
2022-12-19T21:53:13.580Z,0.61
2022-12-19T21:55:41.335Z,0.62
2022-12-19T21:58:08.973Z,0.68
2022-12-19T22:00:36.780Z,0.70
2022-12-19T22:03:20.095Z,0.66
2022-12-19T22:05:49.283Z,0.58
2022-12-19T22:08:17.126Z,0.66
2022-12-19T22:10:44.839Z,0.68
2022-12-19T22:13:12.553Z,0.60
2022-12-19T22:15:40.384Z,0.61
2022-12-19T22:18:08.529Z,0.62
2022-12-19T22:20:38.703Z,0.65
2022-12-19T22:23:13.069Z,0.61
2022-12-19T22:25:41.985Z,0.61
2022-12-19T22:28:09.857Z,0.65
2022-12-19T22:30:38.852Z,0.67
2022-12-19T22:33:06.813Z,0.53
2022-12-19T22:35:37.736Z,0.54
2022-12-19T22:38:07.216Z,0.62
2022-12-19T22:40:35.762Z,0.58
2022-12-19T22:43:03.534Z,0.51
2022-12-19T22:45:31.592Z,0.52
2022-12-19T22:48:00.005Z,0.56
2022-12-19T22:50:30.101Z,0.57
2022-12-19T22:52:57.941Z,0.61
2022-12-19T22:55:27.054Z,0.65
2022-12-19T22:57:55.925Z,0.64
2022-12-19T23:00:24.005Z,0.75
2022-12-19T23:02:53.330Z,0.63
2022-12-19T23:05:21.366Z,0.58
2022-12-19T23:07:49.106Z,0.66
2022-12-19T23:10:17.385Z,0.64
2022-12-19T23:12:46.942Z,0.61
2022-12-19T23:15:15.008Z,0.65
2022-12-19T23:17:42.913Z,0.62
2022-12-19T23:20:11.198Z,0.68
2022-12-19T23:22:39.035Z,0.68
2022-12-19T23:25:08.328Z,0.72
2022-12-19T23:27:37.112Z,0.74
2022-12-19T23:30:07.603Z,0.69
2022-12-19T23:32:35.381Z,0.75
2022-12-19T23:35:03.166Z,0.83
2022-12-19T23:37:31.004Z,0.81
2022-12-19T23:39:58.838Z,0.83
2022-12-19T23:42:26.539Z,0.82
2022-12-19T23:44:54.314Z,0.87
2022-12-19T23:47:23.460Z,0.88
2022-12-19T23:49:51.205Z,0.83
2022-12-19T23:52:19.021Z,0.81
2022-12-19T23:54:47.835Z,0.87
2022-12-19T23:57:16.790Z,0.92
2022-12-19T23:59:45.815Z,0.91
